Time;durP1;ratioP1;P1;durP2;ratioP2;P2;SDS_P1;SDS_P2;PMS_P1;PMS_P2;Temp;Humidity;BMP_temperature;BMP_pressure;BME280_temperature;BME280_humidity;BME280_pressure;Samples;Min_cycle;Max_cycle;Signal;HPM_P1;HPM_P2
2022/09/21 00:01:12;;;;;;;1.60;0.95;;;22.70;48.40;;;;;;5052059;28;20032;-46
2022/09/21 00:03:40;;;;;;;1.48;1.13;;;22.60;48.30;;;;;;5059660;28;20025;-46
2022/09/21 00:06:08;;;;;;;2.05;1.40;;;22.60;48.40;;;;;;5064929;28;20093;-46
2022/09/21 00:08:34;;;;;;;1.30;1.15;;;22.60;48.30;;;;;;5068760;28;20235;-46
2022/09/21 00:11:00;;;;;;;1.60;1.00;;;22.60;48.30;;;;;;5059150;28;20045;-46
2022/09/21 00:13:27;;;;;;;1.60;1.05;;;22.70;48.40;;;;;;5064643;28;20151;-46
2022/09/21 00:15:54;;;;;;;4.45;1.15;;;22.60;48.30;;;;;;5047971;28;20032;-53
2022/09/21 00:18:20;;;;;;;3.20;1.52;;;22.60;48.40;;;;;;5062118;28;20028;-46
2022/09/21 00:20:46;;;;;;;1.27;1.15;;;22.60;48.40;;;;;;5032078;28;20029;-49
2022/09/21 00:23:12;;;;;;;2.13;1.13;;;22.70;48.40;;;;;;5068763;28;20028;-48
2022/09/21 00:25:38;;;;;;;1.73;1.10;;;22.60;48.30;;;;;;5070676;28;20074;-51
2022/09/21 00:28:05;;;;;;;2.72;1.42;;;22.60;48.30;;;;;;5065695;28;20040;-48
2022/09/21 00:30:31;;;;;;;1.52;1.02;;;22.60;48.40;;;;;;5063772;28;20025;-47
2022/09/21 00:32:56;;;;;;;1.65;1.10;;;22.60;48.30;;;;;;5065479;28;20025;-47
2022/09/21 00:35:22;;;;;;;1.20;1.10;;;22.60;48.30;;;;;;5065935;28;20040;-47
2022/09/21 00:37:48;;;;;;;1.70;1.00;;;22.60;48.30;;;;;;5045567;28;20027;-48
2022/09/21 00:40:13;;;;;;;1.35;1.00;;;22.60;48.30;;;;;;5043237;28;20036;-48
2022/09/21 00:42:39;;;;;;;2.72;1.20;;;22.60;48.30;;;;;;5063730;28;20059;-47
2022/09/21 00:45:05;;;;;;;1.85;1.05;;;22.60;49.00;;;;;;5068769;28;20032;-50
2022/09/21 00:47:43;;;;;;;2.15;1.10;;;22.60;48.30;;;;;;5055895;28;20024;-46
2022/09/21 00:50:15;;;;;;;2.70;1.33;;;22.60;48.30;;;;;;5062096;28;20025;-47
2022/09/21 00:52:50;;;;;;;3.58;1.27;;;22.60;48.40;;;;;;5061767;28;20033;-46
2022/09/21 00:55:22;;;;;;;1.15;1.02;;;22.60;48.30;;;;;;5063754;28;20041;-48
2022/09/21 00:57:52;;;;;;;1.27;1.02;;;22.60;48.30;;;;;;5062567;28;20107;-49
2022/09/21 01:00:17;;;;;;;1.10;0.93;;;22.60;48.30;;;;;;5061312;28;20040;-47
2022/09/21 01:02:45;;;;;;;1.77;1.40;;;22.60;48.30;;;;;;5068355;28;20012;-46
2022/09/21 01:05:10;;;;;;;1.25;0.90;;;22.60;48.40;;;;;;5062527;28;20120;-46
2022/09/21 01:07:40;;;;;;;2.63;1.95;;;22.60;48.30;;;;;;5063413;28;20448;-48
2022/09/21 01:10:11;;;;;;;3.00;1.20;;;22.60;48.30;;;;;;5057670;28;20031;-48
2022/09/21 01:13:03;;;;;;;2.33;1.17;;;22.60;48.30;;;;;;5060017;28;20428;-47
2022/09/21 01:15:34;;;;;;;;;;;22.60;48.30;;;;;;5052823;28;20130;-46
2022/09/21 01:18:15;;;;;;;1.50;1.10;;;22.60;48.30;;;;;;5066657;28;19916;-48
2022/09/21 01:21:12;;;;;;;2.47;1.45;;;22.60;48.30;;;;;;5053855;28;20116;-46
2022/09/21 01:24:09;;;;;;;1.48;1.20;;;22.60;48.30;;;;;;5067694;28;20032;-46
2022/09/21 01:26:40;;;;;;;2.03;1.08;;;22.60;48.20;;;;;;5060877;28;20055;-46
2022/09/21 01:29:19;;;;;;;1.40;1.23;;;22.60;48.30;;;;;;5046322;28;20024;-48
2022/09/21 01:31:48;;;;;;;2.08;1.23;;;22.60;48.30;;;;;;5063372;28;20032;-46
2022/09/21 01:34:29;;;;;;;1.27;1.00;;;22.60;48.30;;;;;;5052313;28;20093;-46
2022/09/21 01:37:00;;;;;;;2.00;1.02;;;22.60;48.20;;;;;;5067498;28;20024;-47
2022/09/21 01:39:28;;;;;;;1.92;1.15;;;22.60;48.90;;;;;;5066508;28;20068;-46
2022/09/21 01:41:56;;;;;;;2.38;1.00;;;22.60;48.30;;;;;;5061663;28;20124;-53
2022/09/21 01:44:27;;;;;;;1.58;1.17;;;22.60;48.30;;;;;;5060600;28;20040;-50
2022/09/21 01:46:55;;;;;;;2.63;1.20;;;22.60;48.20;;;;;;5060811;28;20470;-54
2022/09/21 01:49:27;;;;;;;1.83;0.95;;;22.60;48.30;;;;;;5062949;28;20051;-46
2022/09/21 01:51:57;;;;;;;2.42;1.10;;;22.60;48.30;;;;;;5069579;28;20385;-54
2022/09/21 01:54:32;;;;;;;1.55;1.35;;;22.60;48.30;;;;;;5064926;28;20041;-46
2022/09/21 01:57:04;;;;;;;1.20;0.93;;;22.60;48.20;;;;;;5064491;28;20067;-46
2022/09/21 01:59:39;;;;;;;2.00;1.20;;;22.60;48.30;;;;;;5055005;28;20017;-47
2022/09/21 02:02:14;;;;;;;1.77;1.13;;;22.60;48.30;;;;;;5045434;28;20047;-47
2022/09/21 02:04:40;;;;;;;1.60;1.05;;;22.60;48.20;;;;;;5047594;28;20431;-47
2022/09/21 02:07:06;;;;;;;2.42;1.80;;;22.60;48.90;;;;;;5053185;28;20159;-47
2022/09/21 02:09:34;;;;;;;2.85;1.63;;;22.50;48.10;;;;;;5052274;28;20363;-46
2022/09/21 02:12:01;;;;;;;1.60;1.10;;;22.60;48.20;;;;;;5054144;28;20043;-47
2022/09/21 02:14:27;;;;;;;1.23;0.88;;;22.60;48.20;;;;;;5052571;28;20033;-49
2022/09/21 02:17:22;;;;;;;1.88;1.10;;;22.60;48.20;;;;;;5054622;28;20090;-52
2022/09/21 02:20:00;;;;;;;2.72;1.33;;;22.60;48.20;;;;;;5052554;28;20029;-48
2022/09/21 02:22:34;;;;;;;1.80;1.00;;;22.60;48.20;;;;;;5053254;28;20053;-46
2022/09/21 02:25:27;;;;;;;1.30;1.00;;;22.60;48.20;;;;;;5052964;28;20504;-48
2022/09/21 02:28:00;;;;;;;2.17;1.05;;;22.60;48.30;;;;;;5052408;28;20486;-54
2022/09/21 02:30:26;;;;;;;2.00;1.38;;;22.60;48.20;;;;;;5055131;28;20033;-47
2022/09/21 02:33:02;;;;;;;1.67;1.25;;;22.50;48.10;;;;;;5055904;28;20095;-52
2022/09/21 02:35:31;;;;;;;1.67;1.10;;;22.60;48.20;;;;;;5050316;28;20033;-47
2022/09/21 02:38:27;;;;;;;2.45;1.20;;;22.60;48.20;;;;;;5055730;28;20017;-46
2022/09/21 02:41:02;;;;;;;1.52;1.10;;;22.60;48.20;;;;;;5065806;28;20474;-54
2022/09/21 02:43:43;;;;;;;2.67;1.35;;;22.60;48.20;;;;;;5065201;28;20025;-46
2022/09/21 02:46:31;;;;;;;2.93;1.50;;;22.60;48.20;;;;;;5070378;28;20036;-46
2022/09/21 02:49:03;;;;;;;1.65;1.20;;;22.60;48.20;;;;;;5065450;28;20110;-46
2022/09/21 02:51:37;;;;;;;1.52;0.90;;;22.50;48.10;;;;;;5070448;28;20033;-47
2022/09/21 02:54:05;;;;;;;1.02;0.93;;;22.50;48.10;;;;;;5063943;28;20040;-46
2022/09/21 02:56:31;;;;;;;1.70;1.27;;;22.60;48.10;;;;;;5064630;28;20037;-48
2022/09/21 02:59:01;;;;;;;1.80;1.23;;;22.60;48.10;;;;;;5066926;28;20116;-47
2022/09/21 03:01:27;;;;;;;1.77;1.23;;;22.50;48.10;;;;;;5063121;28;20070;-46
2022/09/21 03:03:53;;;;;;;2.97;1.52;;;22.50;48.10;;;;;;5071240;28;20028;-53
2022/09/21 03:06:19;;;;;;;1.60;1.00;;;22.50;48.10;;;;;;5064947;28;20056;-46
2022/09/21 03:08:44;;;;;;;1.00;0.80;;;22.50;48.10;;;;;;5066715;28;20375;-48
2022/09/21 03:11:10;;;;;;;2.00;1.00;;;22.50;48.10;;;;;;5050260;28;20119;-45
2022/09/21 03:13:36;;;;;;;1.80;1.02;;;22.50;48.10;;;;;;5052199;28;20045;-46
2022/09/21 03:16:04;;;;;;;1.80;0.93;;;22.50;48.00;;;;;;5048724;28;20039;-46
2022/09/21 03:18:30;;;;;;;3.90;1.10;;;22.50;48.10;;;;;;5050869;28;20025;-46
2022/09/21 03:20:56;;;;;;;1.38;1.02;;;22.50;48.10;;;;;;5044937;28;20017;-48
2022/09/21 03:23:23;;;;;;;1.77;1.05;;;22.50;48.10;;;;;;5041321;28;20117;-48
2022/09/21 03:25:51;;;;;;;1.13;0.85;;;22.50;48.00;;;;;;5044538;28;20035;-46
2022/09/21 03:28:16;;;;;;;1.80;1.20;;;22.50;48.00;;;;;;5045163;28;20021;-47
2022/09/21 03:30:42;;;;;;;1.30;1.10;;;22.50;48.00;;;;;;5047409;28;20025;-47
2022/09/21 03:33:08;;;;;;;1.88;1.20;;;22.50;48.00;;;;;;5048953;28;20108;-46
2022/09/21 03:35:34;;;;;;;1.80;1.25;;;22.50;48.00;;;;;;5048417;28;20044;-46
2022/09/21 03:38:00;;;;;;;2.03;1.10;;;22.50;48.00;;;;;;5045979;28;20017;-48
2022/09/21 03:40:26;;;;;;;1.38;0.80;;;22.50;48.00;;;;;;5047896;28;20083;-47
2022/09/21 03:42:53;;;;;;;1.95;1.40;;;22.50;48.00;;;;;;5046217;28;20038;-53
2022/09/21 03:45:23;;;;;;;1.73;1.02;;;22.50;48.00;;;;;;5050402;28;20037;-46
2022/09/21 03:47:49;;;;;;;1.27;0.90;;;22.50;48.00;;;;;;5051738;28;20028;-47
2022/09/21 03:50:15;;;;;;;2.45;1.10;;;22.50;48.00;;;;;;5038317;28;20479;-49
2022/09/21 03:52:40;;;;;;;1.80;0.90;;;22.50;48.00;;;;;;5044554;28;20029;-46
2022/09/21 03:55:08;;;;;;;1.38;0.98;;;22.50;48.00;;;;;;5046012;28;20032;-46
2022/09/21 03:57:35;;;;;;;1.13;0.88;;;22.50;47.90;;;;;;5045978;28;20029;-47
2022/09/21 04:00:03;;;;;;;1.55;1.08;;;22.50;47.90;;;;;;5043249;28;20026;-45
2022/09/21 04:02:29;;;;;;;1.52;0.95;;;22.50;48.00;;;;;;5046953;28;20057;-47
2022/09/21 04:04:54;;;;;;;1.38;1.05;;;22.50;47.90;;;;;;5041244;28;20491;-51
2022/09/21 04:07:20;;;;;;;2.08;1.00;;;22.50;47.90;;;;;;5046486;28;20039;-50
2022/09/21 04:09:46;;;;;;;1.35;1.02;;;22.50;47.90;;;;;;5033937;28;20033;-48
2022/09/21 04:12:11;;;;;;;3.00;1.10;;;22.50;47.90;;;;;;5059194;28;20033;-46
2022/09/21 04:14:37;;;;;;;1.83;1.13;;;22.50;47.90;;;;;;5055929;28;20065;-46
2022/09/21 04:17:03;;;;;;;2.50;1.23;;;22.50;48.00;;;;;;5062405;28;20024;-46
2022/09/21 04:19:28;;;;;;;1.45;0.80;;;22.50;47.90;;;;;;5065577;28;20074;-47
2022/09/21 04:21:55;;;;;;;2.38;1.20;;;22.50;47.90;;;;;;5063203;28;20037;-52
2022/09/21 04:24:21;;;;;;;1.45;1.10;;;22.50;48.00;;;;;;5062021;28;20036;-46
2022/09/21 04:26:47;;;;;;;2.08;1.00;;;22.50;47.90;;;;;;5069871;28;20033;-48
2022/09/21 04:29:14;;;;;;;1.88;1.48;;;22.50;47.90;;;;;;5070304;28;20492;-49
2022/09/21 04:31:40;;;;;;;1.63;1.10;;;22.50;47.80;;;;;;5070886;28;20033;-46
2022/09/21 04:34:07;;;;;;;2.70;1.02;;;22.50;47.80;;;;;;5054168;28;20445;-46
2022/09/21 04:36:33;;;;;;;1.20;0.82;;;22.50;47.90;;;;;;5069276;28;20052;-47
2022/09/21 04:39:03;;;;;;;2.38;1.10;;;22.50;47.80;;;;;;5069834;28;20060;-52
2022/09/21 04:41:28;;;;;;;1.63;1.00;;;22.50;47.80;;;;;;5070530;28;20032;-46
2022/09/21 04:43:54;;;;;;;1.88;1.40;;;22.50;47.90;;;;;;5060471;28;20032;-55
2022/09/21 04:46:20;;;;;;;1.10;0.95;;;22.50;47.90;;;;;;5067545;28;20029;-47
2022/09/21 04:48:46;;;;;;;1.33;1.05;;;22.50;47.80;;;;;;5070345;28;20029;-46
2022/09/21 04:51:14;;;;;;;2.83;1.10;;;22.50;47.90;;;;;;5058038;28;20568;-47
2022/09/21 04:53:41;;;;;;;2.70;0.93;;;22.50;47.80;;;;;;5059121;28;20024;-46
2022/09/21 04:56:08;;;;;;;2.20;1.33;;;22.50;47.50;;;;;;5063835;28;20052;-45
2022/09/21 04:58:34;;;;;;;2.33;1.52;;;22.50;45.80;;;;;;5053742;28;20167;-50
2022/09/21 05:01:05;;;;;;;3.17;1.70;;;22.40;43.60;;;;;;5064244;28;20024;-45
2022/09/21 05:03:30;;;;;;;3.80;1.90;;;22.40;42.70;;;;;;5063722;28;20028;-46
2022/09/21 05:05:56;;;;;;;4.35;2.13;;;22.30;43.20;;;;;;5061355;28;20466;-49
2022/09/21 05:11:14;;;;;;;4.75;2.60;;;22.20;41.20;;;;;;5062324;28;20059;-45
2022/09/21 05:13:41;;;;;;;4.18;2.28;;;22.10;40.50;;;;;;5059834;28;20016;-48
2022/09/21 05:16:07;;;;;;;3.95;2.45;;;22.10;40.30;;;;;;5065019;28;20053;-45
2022/09/21 05:18:33;;;;;;;2.90;2.38;;;22.00;39.90;;;;;;5063204;28;20108;-46
2022/09/21 05:21:00;;;;;;;3.60;1.95;;;22.10;40.10;;;;;;5054094;28;20112;-45
2022/09/21 05:23:30;;;;;;;6.10;2.10;;;22.10;41.20;;;;;;5051614;28;20032;-46
2022/09/21 05:25:57;;;;;;;3.80;2.10;;;22.20;40.90;;;;;;5050015;28;20482;-46
2022/09/21 05:28:25;;;;;;;4.07;2.10;;;22.20;41.80;;;;;;5054158;28;20035;-45
2022/09/21 05:31:09;;;;;;;5.68;2.13;;;22.20;41.70;;;;;;5060411;28;20025;-53
2022/09/21 05:33:38;;;;;;;3.85;2.10;;;22.20;41.60;;;;;;5058107;28;20090;-47
2022/09/21 05:36:07;;;;;;;4.97;1.92;;;22.20;41.50;;;;;;5068859;28;20040;-46
2022/09/21 05:38:33;;;;;;;4.40;1.55;;;22.20;41.40;;;;;;5069895;28;20036;-47
2022/09/21 05:40:59;;;;;;;6.60;2.00;;;22.20;42.80;;;;;;5060583;28;20034;-45
2022/09/21 05:43:25;;;;;;;4.25;2.33;;;22.10;41.90;;;;;;5063130;28;20473;-46
2022/09/21 05:46:08;;;;;;;6.10;2.10;;;22.20;43.10;;;;;;5062828;28;20095;-52
2022/09/21 05:48:52;;;;;;;4.28;2.40;;;22.10;42.20;;;;;;5057328;28;20519;-45
2022/09/21 05:51:52;;;;;;;4.70;2.55;;;22.20;41.80;;;;;;5064820;28;20042;-46
2022/09/21 05:54:38;;;;;;;3.40;1.83;;;22.20;43.20;;;;;;5053093;28;20033;-48
2022/09/21 05:57:32;;;;;;;4.35;2.15;;;22.10;42.20;;;;;;5066819;28;20056;-44
2022/09/21 06:00:06;;;;;;;4.57;2.08;;;22.10;42.80;;;;;;5057964;28;20039;-44
2022/09/21 06:02:50;;;;;;;6.68;2.08;;;22.00;41.80;;;;;;5064258;28;20055;-44
2022/09/21 06:05:16;;;;;;;4.53;1.98;;;22.00;41.70;;;;;;5059345;28;20060;-44
2022/09/21 06:07:42;;;;;;;4.85;2.13;;;22.00;42.90;;;;;;5050437;28;20036;-44
2022/09/21 06:10:10;;;;;;;6.00;1.63;;;22.10;43.50;;;;;;5052200;28;20450;-48
2022/09/21 06:12:36;;;;;;;8.93;1.63;;;22.10;44.00;;;;;;5052801;28;20044;-45
2022/09/21 06:15:03;;;;;;;4.50;1.85;;;22.20;44.30;;;;;;5054292;28;20367;-44
2022/09/21 06:17:28;;;;;;;5.78;1.90;;;22.20;44.40;;;;;;5052176;28;20082;-45
2022/09/21 06:19:54;;;;;;;3.58;1.80;;;22.20;44.50;;;;;;5058575;28;20482;-52
2022/09/21 06:22:20;;;;;;;3.60;1.83;;;22.20;44.70;;;;;;5051540;28;20024;-46
2022/09/21 06:24:45;;;;;;;5.13;1.70;;;22.20;44.80;;;;;;5045291;28;20090;-46
2022/09/21 06:27:11;;;;;;;3.63;1.90;;;22.30;45.00;;;;;;5061302;28;20162;-45
2022/09/21 06:29:37;;;;;;;3.53;1.70;;;22.20;45.40;;;;;;5047462;28;20086;-45
2022/09/21 06:32:08;;;;;;;5.50;2.03;;;22.20;45.60;;;;;;5043708;28;20037;-46
2022/09/21 06:34:34;;;;;;;5.57;1.80;;;22.20;45.40;;;;;;5049456;28;20051;-46
2022/09/21 06:36:59;;;;;;;2.72;1.60;;;22.30;45.70;;;;;;5050020;28;20342;-45
2022/09/21 06:39:25;;;;;;;2.30;1.70;;;22.30;46.10;;;;;;5050811;28;20032;-45
2022/09/21 06:41:51;;;;;;;3.08;1.90;;;22.30;46.20;;;;;;5032946;28;20104;-53
2022/09/21 06:44:17;;;;;;;1.75;1.30;;;22.30;46.10;;;;;;5050173;28;20037;-50
2022/09/21 06:46:42;;;;;;;6.97;2.10;;;22.20;46.20;;;;;;5050695;28;20079;-46
2022/09/21 06:49:08;;;;;;;2.80;1.60;;;22.20;46.30;;;;;;5050070;28;20027;-45
2022/09/21 06:51:35;;;;;;;4.00;1.77;;;22.20;46.20;;;;;;5031381;28;20533;-45
2022/09/21 06:54:00;;;;;;;2.03;1.48;;;22.20;46.30;;;;;;5049781;28;20108;-50
2022/09/21 06:56:26;;;;;;;7.50;2.50;;;22.20;46.20;;;;;;5050834;28;20105;-49
2022/09/21 06:58:52;;;;;;;3.13;1.50;;;22.20;46.30;;;;;;5052522;28;20029;-53
2022/09/21 07:01:18;;;;;;;3.25;1.50;;;22.20;46.20;;;;;;5053723;28;20429;-45
2022/09/21 07:03:47;;;;;;;2.30;1.63;;;22.20;46.30;;;;;;5034806;28;20147;-48
2022/09/21 07:06:14;;;;;;;3.95;1.65;;;22.20;46.30;;;;;;5049257;28;20387;-46
2022/09/21 07:08:41;;;;;;;2.80;1.52;;;22.30;46.50;;;;;;5042163;28;20026;-46
2022/09/21 07:11:07;;;;;;;3.13;1.88;;;22.30;46.50;;;;;;5043760;28;20045;-49
2022/09/21 07:13:32;;;;;;;4.72;1.80;;;22.20;46.60;;;;;;5043202;28;20044;-57
2022/09/21 07:16:02;;;;;;;4.45;1.83;;;22.30;46.80;;;;;;5048173;28;20451;-58
2022/09/21 07:18:27;;;;;;;3.53;1.55;;;22.30;47.60;;;;;;5053878;28;20448;-57
2022/09/21 07:20:53;;;;;;;5.55;2.10;;;22.40;47.60;;;;;;5045384;28;20104;-50
2022/09/21 07:23:21;;;;;;;3.17;1.58;;;22.40;47.70;;;;;;5053925;28;20044;-57
2022/09/21 07:25:49;;;;;;;3.67;1.63;;;22.40;47.80;;;;;;5051632;28;20033;-59
2022/09/21 07:28:15;;;;;;;5.57;1.73;;;22.40;47.90;;;;;;5043859;28;20599;-57
2022/09/21 07:30:41;;;;;;;3.50;1.90;;;22.40;47.90;;;;;;5053567;28;20526;-59
2022/09/21 07:33:07;;;;;;;9.57;1.67;;;22.30;48.00;;;;;;5051037;28;20108;-59
2022/09/21 07:35:32;;;;;;;3.40;1.85;;;22.30;48.00;;;;;;5052424;28;20073;-59
2022/09/21 07:38:00;;;;;;;3.78;1.70;;;22.30;48.10;;;;;;5048949;28;20475;-60
2022/09/21 07:40:25;;;;;;;2.88;1.90;;;22.30;48.10;;;;;;5047943;28;20049;-59
2022/09/21 07:42:51;;;;;;;3.38;1.63;;;22.30;48.20;;;;;;5052571;28;20055;-54
2022/09/21 07:45:17;;;;;;;6.07;2.00;;;22.30;48.20;;;;;;5054510;28;20029;-59
2022/09/21 07:47:43;;;;;;;3.88;1.50;;;22.30;48.20;;;;;;5044611;28;20033;-59
2022/09/21 07:50:09;;;;;;;3.38;1.55;;;22.30;48.20;;;;;;5056815;28;20162;-59
2022/09/21 07:52:34;;;;;;;3.00;1.65;;;22.30;48.20;;;;;;5050732;28;20032;-58
2022/09/21 07:55:00;;;;;;;3.05;1.73;;;22.30;48.30;;;;;;5052468;28;20048;-58
2022/09/21 08:00:11;;;;;;;2.70;1.80;;;22.30;48.30;;;;;;5040894;28;20493;-59
2022/09/21 08:02:37;;;;;;;2.95;1.33;;;22.30;48.30;;;;;;5044362;28;20428;-59
2022/09/21 08:05:03;;;;;;;2.53;1.60;;;22.30;48.30;;;;;;5049596;28;20041;-60
2022/09/21 08:07:28;;;;;;;9.45;2.28;;;22.30;48.40;;;;;;5046754;28;20029;-57
2022/09/21 08:09:54;;;;;;;2.38;1.60;;;22.30;48.40;;;;;;5042920;28;20033;-51
2022/09/21 08:12:20;;;;;;;5.20;1.77;;;22.30;48.40;;;;;;5048195;28;20063;-59
2022/09/21 08:14:46;;;;;;;4.43;1.95;;;22.30;48.50;;;;;;5046581;28;20033;-52
2022/09/21 08:17:13;;;;;;;3.70;1.58;;;22.30;48.40;;;;;;5050349;28;20068;-59
2022/09/21 08:19:39;;;;;;;5.00;1.75;;;22.30;48.40;;;;;;5043844;28;20029;-59
2022/09/21 08:22:05;;;;;;;3.95;1.63;;;22.30;48.40;;;;;;5050459;28;20052;-60
2022/09/21 08:24:31;;;;;;;4.32;1.90;;;22.30;49.10;;;;;;5044343;28;20041;-60
2022/09/21 08:26:58;;;;;;;3.17;1.73;;;22.30;48.40;;;;;;5048835;28;20079;-57
2022/09/21 08:29:24;;;;;;;3.63;1.60;;;22.30;48.50;;;;;;5046028;28;20029;-60
2022/09/21 08:31:52;;;;;;;3.50;1.52;;;22.30;48.50;;;;;;5044098;28;20846;-59
2022/09/21 08:34:18;;;;;;;3.55;1.75;;;22.30;48.60;;;;;;5044643;28;20052;-59
2022/09/21 08:36:45;;;;;;;3.38;1.58;;;22.30;48.60;;;;;;5047668;28;20107;-58
2022/09/21 08:39:13;;;;;;;4.57;2.25;;;22.30;48.60;;;;;;5045049;28;20040;-60
2022/09/21 08:41:59;;;;;;;2.80;1.48;;;22.30;48.60;;;;;;5042493;28;20041;-61
2022/09/21 08:44:30;;;;;;;3.70;1.70;;;22.30;48.60;;;;;;5050424;28;20385;-60
2022/09/21 08:47:05;;;;;;;6.05;1.60;;;22.30;48.70;;;;;;5042309;28;20035;-51
2022/09/21 08:49:34;;;;;;;2.65;1.63;;;22.30;48.70;;;;;;5051349;28;20115;-57
2022/09/21 08:52:06;;;;;;;3.30;1.70;;;22.30;48.70;;;;;;5044049;28;20034;-59
2022/09/21 08:54:51;;;;;;;3.67;2.05;;;22.30;48.70;;;;;;5050788;28;20041;-60
2022/09/21 08:57:17;;;;;;;3.95;2.17;;;22.30;48.70;;;;;;5043104;28;20028;-59
2022/09/21 08:59:46;;;;;;;2.72;1.65;;;22.30;48.80;;;;;;5051010;28;20072;-60
2022/09/21 09:02:36;;;;;;;6.57;2.05;;;22.30;48.80;;;;;;5050268;28;20043;-60
2022/09/21 09:05:22;;;;;;;5.70;1.70;;;22.30;48.80;;;;;;5049435;28;20029;-60
2022/09/21 09:08:16;;;;;;;4.18;1.70;;;22.30;48.90;;;;;;5049963;28;20086;-60
2022/09/21 09:10:45;;;;;;;3.00;1.52;;;22.30;48.90;;;;;;5044037;28;20128;-60
2022/09/21 09:13:32;;;;;;;2.53;1.60;;;22.30;48.90;;;;;;5033254;28;20086;-59
2022/09/21 09:16:17;;;;;;;4.63;1.80;;;22.30;48.90;;;;;;5033507;28;20037;-52
2022/09/21 09:18:56;;;;;;;2.38;1.48;;;22.40;49.00;;;;;;5030006;28;20025;-60
2022/09/21 09:21:33;;;;;;;3.65;1.80;;;22.40;49.00;;;;;;5030338;28;20108;-60
2022/09/21 09:24:10;;;;;;;3.60;2.00;;;22.30;49.00;;;;;;5029951;28;20030;-56
2022/09/21 09:26:51;;;;;;;3.92;1.77;;;22.40;49.10;;;;;;5031356;28;20446;-59
2022/09/21 09:29:39;;;;;;;3.05;1.52;;;22.30;49.10;;;;;;5030043;28;20459;-58
2022/09/21 09:32:11;;;;;;;3.03;1.80;;;22.30;49.10;;;;;;5030899;28;20025;-60
2022/09/21 09:35:06;;;;;;;4.32;2.05;;;22.30;49.10;;;;;;5031036;28;20037;-60
2022/09/21 09:37:39;;;;;;;4.05;1.75;;;22.40;49.20;;;;;;5026920;28;20025;-59
2022/09/21 09:40:07;;;;;;;3.42;1.65;;;22.40;49.20;;;;;;5028324;28;20382;-60
2022/09/21 09:42:52;;;;;;;3.00;1.40;;;22.30;49.20;;;;;;5030600;28;20034;-60
2022/09/21 09:45:47;;;;;;;6.40;1.83;;;22.40;49.20;;;;;;5027776;28;20029;-60
2022/09/21 09:49:01;;;;;;;3.15;1.55;;;22.40;49.20;;;;;;5027147;28;20034;-57
2022/09/21 09:51:26;;;;;;;4.55;1.25;;;22.40;49.20;;;;;;5004226;28;20450;-60
2022/09/21 09:53:58;;;;;;;3.35;1.50;;;22.40;49.30;;;;;;5031215;28;20061;-60
2022/09/21 09:56:23;;;;;;;2.95;1.60;;;22.40;49.30;;;;;;5030587;28;20067;-60
2022/09/21 09:58:55;;;;;;;3.22;1.40;;;22.40;49.30;;;;;;5029441;28;20523;-60
2022/09/21 10:01:40;;;;;;;3.25;1.67;;;22.30;49.20;;;;;;5030568;28;20041;-60
2022/09/21 10:04:08;;;;;;;2.42;1.60;;;22.40;49.30;;;;;;5030303;28;20030;-60
2022/09/21 10:06:37;;;;;;;3.00;1.70;;;22.40;49.30;;;;;;5030247;28;20048;-60
2022/09/21 10:09:31;;;;;;;4.10;1.52;;;22.30;49.20;;;;;;5026667;28;20077;-60
2022/09/21 10:12:18;;;;;;;3.85;1.33;;;22.40;49.30;;;;;;5045843;28;20509;-51
2022/09/21 10:14:52;;;;;;;2.40;1.40;;;22.40;49.20;;;;;;5047909;28;20051;-60
2022/09/21 10:17:18;;;;;;;2.40;1.50;;;22.40;49.20;;;;;;5049969;28;20082;-59
2022/09/21 10:19:45;;;;;;;2.28;1.33;;;22.40;49.30;;;;;;5050492;28;20083;-61
2022/09/21 10:22:18;;;;;;;4.20;1.38;;;22.50;49.20;;;;;;5049851;28;20052;-59
2022/09/21 10:24:55;;;;;;;1.95;1.30;;;22.60;49.10;;;;;;5046097;28;20051;-60
2022/09/21 10:27:29;;;;;;;1.52;1.08;;;22.70;49.30;;;;;;5050577;28;20025;-57
2022/09/21 10:29:55;;;;;;;2.15;1.30;;;22.70;50.40;;;;;;5038796;28;20030;-56
2022/09/21 10:32:25;;;;;;;3.22;1.38;;;22.70;49.80;;;;;;5045978;28;20419;-60
2022/09/21 10:35:12;;;;;;;2.20;1.23;;;22.60;50.10;;;;;;5047072;28;20079;-55
2022/09/21 10:37:43;;;;;;;2.67;1.27;;;22.60;50.20;;;;;;5047634;28;20029;-59
2022/09/21 10:40:34;;;;;;;5.82;1.02;;;22.60;50.30;;;;;;5041941;28;20033;-60
2022/09/21 10:42:59;;;;;;;1.90;1.10;;;22.60;50.50;;;;;;5040720;28;20087;-52
2022/09/21 10:45:27;;;;;;;2.92;1.23;;;22.60;50.70;;;;;;5044872;28;20033;-60
2022/09/21 10:48:07;;;;;;;2.65;1.10;;;22.50;50.80;;;;;;5049100;28;20036;-60
2022/09/21 10:50:37;;;;;;;2.55;1.20;;;22.60;50.80;;;;;;5056205;28;20044;-60
2022/09/21 10:53:16;;;;;;;1.25;1.05;;;22.60;50.90;;;;;;5052124;28;20028;-59
2022/09/21 10:56:00;;;;;;;1.90;1.20;;;22.60;50.80;;;;;;5058380;28;20032;-60
2022/09/21 10:58:26;;;;;;;2.90;1.02;;;22.60;51.30;;;;;;5051637;28;20088;-60
2022/09/21 11:00:54;;;;;;;1.95;1.10;;;22.60;51.40;;;;;;5050473;28;20025;-59
2022/09/21 11:03:29;;;;;;;1.85;0.90;;;22.60;51.50;;;;;;5050248;28;20155;-60
2022/09/21 11:06:01;;;;;;;1.98;0.90;;;22.60;51.50;;;;;;5052472;28;20044;-60
2022/09/21 11:08:35;;;;;;;2.30;1.02;;;22.60;51.50;;;;;;5053990;28;20025;-59
2022/09/21 11:11:20;;;;;;;6.53;1.48;;;22.60;51.50;;;;;;5053197;28;20552;-50
2022/09/21 11:13:53;;;;;;;2.13;1.08;;;22.60;51.60;;;;;;5047819;28;20033;-60
2022/09/21 11:16:59;;;;;;;1.30;1.15;;;22.60;51.40;;;;;;5045062;28;20045;-61
2022/09/21 11:19:48;;;;;;;4.18;1.00;;;22.60;51.40;;;;;;4964221;28;20043;-62
2022/09/21 11:22:58;;;;;;;1.60;1.40;;;22.60;51.50;;;;;;5038673;28;20044;-60
2022/09/21 11:25:42;;;;;;;1.88;1.10;;;22.60;52.20;;;;;;4975974;28;20743;-60
2022/09/21 11:28:19;;;;;;;2.47;1.10;;;22.60;51.70;;;;;;4975510;28;20448;-60
2022/09/21 11:31:01;;;;;;;1.35;0.90;;;22.60;52.30;;;;;;4976844;28;20599;-60
2022/09/21 11:33:58;;;;;;;1.40;0.90;;;22.60;52.60;;;;;;4977082;28;20039;-61
2022/09/21 11:36:28;;;;;;;1.70;0.80;;;22.60;52.70;;;;;;4953549;28;20074;-58
2022/09/21 11:39:28;;;;;;;2.58;1.05;;;22.60;52.50;;;;;;4955788;28;20034;-60
2022/09/21 11:42:24;;;;;;;2.92;0.80;;;22.60;52.60;;;;;;4968736;28;20046;-59
2022/09/21 11:44:54;;;;;;;1.70;0.93;;;22.60;53.40;;;;;;4954377;28;20039;-59
2022/09/21 11:47:41;;;;;;;1.15;0.80;;;22.60;52.80;;;;;;4963613;28;20031;-59
2022/09/21 11:50:26;;;;;;;2.90;1.52;;;22.60;52.80;;;;;;4961952;28;20396;-59
2022/09/21 11:52:54;;;;;;;1.25;0.82;;;22.60;52.70;;;;;;4957692;28;20027;-59
2022/09/21 11:55:35;;;;;;;2.05;1.23;;;22.60;52.70;;;;;;4970908;28;20189;-61
2022/09/21 11:58:25;;;;;;;1.03;0.80;;;22.60;52.60;;;;;;5050535;28;20033;-51
2022/09/21 12:01:05;;;;;;;1.17;0.88;;;22.60;52.50;;;;;;5041845;28;20032;-58
2022/09/21 12:03:43;;;;;;;1.85;1.10;;;22.60;52.60;;;;;;5048360;28;20032;-60
2022/09/21 12:06:27;;;;;;;0.98;0.80;;;22.60;52.60;;;;;;5051028;28;20037;-59
2022/09/21 12:09:34;;;;;;;1.77;0.82;;;22.60;52.60;;;;;;5047529;28;20060;-60
2022/09/21 12:12:55;;;;;;;2.45;1.00;;;22.60;52.60;;;;;;5033187;28;20483;-59
2022/09/21 12:15:48;;;;;;;1.83;1.00;;;22.60;52.50;;;;;;5000855;28;20066;-59
2022/09/21 12:18:53;;;;;;;2.15;0.93;;;22.60;52.50;;;;;;5031597;28;20417;-60
2022/09/21 12:21:24;;;;;;;1.02;0.88;;;22.60;52.50;;;;;;5032422;28;20032;-60
2022/09/21 12:23:59;;;;;;;1.50;0.77;;;22.60;52.50;;;;;;5024092;28;20049;-60
2022/09/21 12:26:40;;;;;;;1.75;1.00;;;22.60;52.50;;;;;;5032502;28;20466;-60
2022/09/21 12:29:36;;;;;;;2.20;1.15;;;22.60;52.40;;;;;;5021989;28;20091;-60
2022/09/21 12:32:48;;;;;;;3.00;1.10;;;22.60;52.30;;;;;;5015055;28;20044;-52
2022/09/21 12:35:19;;;;;;;;;;;22.60;52.30;;;;;;5026583;28;20045;-59
2022/09/21 12:38:16;;;;;;;2.80;0.75;;;22.60;52.30;;;;;;5032546;28;19915;-60
2022/09/21 12:41:26;;;;;;;1.92;0.82;;;22.60;52.30;;;;;;5029040;28;20029;-60
2022/09/21 12:44:04;;;;;;;1.17;0.60;;;22.60;52.20;;;;;;5020726;28;20116;-60
2022/09/21 12:46:37;;;;;;;1.55;0.88;;;22.60;52.10;;;;;;5025628;28;20030;-60
2022/09/21 12:49:13;;;;;;;1.48;0.77;;;22.70;52.00;;;;;;5031302;28;20025;-50
2022/09/21 12:51:44;;;;;;;1.95;0.77;;;22.70;51.90;;;;;;5031857;28;20035;-60
2022/09/21 12:54:24;;;;;;;1.20;0.70;;;22.70;51.80;;;;;;5027163;28;20029;-59
2022/09/21 12:57:08;;;;;;;1.52;0.75;;;22.70;51.70;;;;;;5026314;28;20379;-60
2022/09/21 12:59:48;;;;;;;1.55;0.70;;;22.70;51.60;;;;;;5017651;28;20037;-60
2022/09/21 13:02:37;;;;;;;1.08;0.70;;;22.80;51.60;;;;;;5028445;28;20025;-60
2022/09/21 13:05:40;;;;;;;1.33;0.55;;;22.80;51.50;;;;;;5023883;28;20033;-50
2022/09/21 13:08:11;;;;;;;1.63;0.70;;;22.80;51.50;;;;;;5024204;28;20025;-56
2022/09/21 13:10:56;;;;;;;1.52;0.77;;;22.80;51.50;;;;;;5047258;28;20048;-60
2022/09/21 13:13:45;;;;;;;0.85;0.60;;;22.80;51.60;;;;;;5060586;28;20032;-61
2022/09/21 13:16:36;;;;;;;0.95;0.80;;;22.80;51.70;;;;;;5045453;28;20041;-61
2022/09/21 13:19:03;;;;;;;1.27;0.60;;;22.70;51.60;;;;;;5049592;28;20021;-54
2022/09/21 13:21:30;;;;;;;1.58;0.82;;;22.70;51.50;;;;;;5050328;28;20029;-61
2022/09/21 13:23:57;;;;;;;0.70;0.50;;;22.70;51.50;;;;;;5049270;28;20082;-60